Terminal Aerodrome Forecast
Issued by NWS Miami, FL

Home | Current Version | Previous Version | Text Only | Print | Product List | Glossary On
Versions: 1 2 3 4 5 6 7 8 9 10 11 12 13 14 15 16 17 18 19 20 21 22 23 24 25 26 27
000
FTUS42 KMFL 280301 AAB
TAFPBI
TAF AMD
KPBI 280301Z 2803/2824 10006KT P6SM SCT025 BKN050
      TEMPO 2803/2805 SCT025 BKN030 BKN050
     FM281200 11011KT P6SM SCT050
     FM281600 12014KT P6SM SCT050 SCT250=

USA.gov is the U.S. government's official web portal to all federal, state and local government web resources and services.